sensor_id;sensor_type;location;lat;lon;timestamp;P1;durP1;ratioP1;P2;durP2;ratioP2
42364;SDS011;28498;54.400;18.566;2024-03-08T00:00:09;23.48;;;9.85;;
42364;SDS011;28498;54.400;18.566;2024-03-08T00:02:42;29.20;;;12.10;;
42364;SDS011;28498;54.400;18.566;2024-03-08T00:05:10;31.13;;;13.85;;
42364;SDS011;28498;54.400;18.566;2024-03-08T00:07:38;34.30;;;15.65;;
42364;SDS011;28498;54.400;18.566;2024-03-08T00:10:06;38.60;;;16.05;;
42364;SDS011;28498;54.400;18.566;2024-03-08T00:12:41;32.35;;;14.15;;
42364;SDS011;28498;54.400;18.566;2024-03-08T00:15:09;29.90;;;13.40;;
42364;SDS011;28498;54.400;18.566;2024-03-08T00:17:37;30.50;;;13.23;;
42364;SDS011;28498;54.400;18.566;2024-03-08T00:20:05;33.03;;;13.52;;
42364;SDS011;28498;54.400;18.566;2024-03-08T00:22:35;29.88;;;12.93;;
42364;SDS011;28498;54.400;18.566;2024-03-08T00:25:03;26.92;;;14.40;;
42364;SDS011;28498;54.400;18.566;2024-03-08T00:27:30;35.92;;;15.93;;
42364;SDS011;28498;54.400;18.566;2024-03-08T00:29:57;40.15;;;15.60;;
42364;SDS011;28498;54.400;18.566;2024-03-08T00:32:24;38.38;;;14.57;;
42364;SDS011;28498;54.400;18.566;2024-03-08T00:34:51;36.92;;;15.63;;
42364;SDS011;28498;54.400;18.566;2024-03-08T00:37:18;35.53;;;17.27;;
42364;SDS011;28498;54.400;18.566;2024-03-08T00:39:45;36.08;;;16.13;;
42364;SDS011;28498;54.400;18.566;2024-03-08T00:42:12;37.35;;;15.73;;
42364;SDS011;28498;54.400;18.566;2024-03-08T00:44:40;41.40;;;17.55;;
42364;SDS011;28498;54.400;18.566;2024-03-08T00:47:07;45.88;;;20.25;;
42364;SDS011;28498;54.400;18.566;2024-03-08T00:49:34;44.45;;;21.30;;
42364;SDS011;28498;54.400;18.566;2024-03-08T00:52:03;43.08;;;20.33;;
42364;SDS011;28498;54.400;18.566;2024-03-08T00:54:32;50.35;;;21.17;;
42364;SDS011;28498;54.400;18.566;2024-03-08T00:56:59;45.67;;;21.30;;
42364;SDS011;28498;54.400;18.566;2024-03-08T00:59:29;49.50;;;22.17;;
42364;SDS011;28498;54.400;18.566;2024-03-08T01:02:02;59.50;;;23.92;;
42364;SDS011;28498;54.400;18.566;2024-03-08T01:04:29;51.17;;;22.92;;
42364;SDS011;28498;54.400;18.566;2024-03-08T01:06:56;51.85;;;22.90;;
42364;SDS011;28498;54.400;18.566;2024-03-08T01:09:24;47.15;;;22.60;;
42364;SDS011;28498;54.400;18.566;2024-03-08T01:11:56;53.95;;;24.50;;
42364;SDS011;28498;54.400;18.566;2024-03-08T01:14:23;52.78;;;25.38;;
42364;SDS011;28498;54.400;18.566;2024-03-08T01:16:55;59.17;;;25.55;;
42364;SDS011;28498;54.400;18.566;2024-03-08T01:19:23;47.38;;;23.40;;
42364;SDS011;28498;54.400;18.566;2024-03-08T01:21:50;48.97;;;24.00;;
42364;SDS011;28498;54.400;18.566;2024-03-08T01:24:19;52.90;;;24.98;;
42364;SDS011;28498;54.400;18.566;2024-03-08T01:26:46;50.70;;;23.60;;
42364;SDS011;28498;54.400;18.566;2024-03-08T01:29:13;50.00;;;23.52;;
42364;SDS011;28498;54.400;18.566;2024-03-08T01:31:40;47.20;;;22.25;;
42364;SDS011;28498;54.400;18.566;2024-03-08T01:34:07;47.35;;;24.23;;
42364;SDS011;28498;54.400;18.566;2024-03-08T01:36:34;49.63;;;23.90;;
42364;SDS011;28498;54.400;18.566;2024-03-08T01:39:03;52.22;;;23.30;;
42364;SDS011;28498;54.400;18.566;2024-03-08T01:41:35;54.15;;;25.05;;
42364;SDS011;28498;54.400;18.566;2024-03-08T01:44:02;49.97;;;23.50;;
42364;SDS011;28498;54.400;18.566;2024-03-08T01:46:30;59.55;;;24.17;;
42364;SDS011;28498;54.400;18.566;2024-03-08T01:48:57;54.53;;;25.13;;
42364;SDS011;28498;54.400;18.566;2024-03-08T01:51:28;49.08;;;24.33;;
42364;SDS011;28498;54.400;18.566;2024-03-08T01:53:57;59.25;;;25.23;;
42364;SDS011;28498;54.400;18.566;2024-03-08T01:56:26;58.78;;;26.08;;
42364;SDS011;28498;54.400;18.566;2024-03-08T01:58:54;61.17;;;28.00;;
42364;SDS011;28498;54.400;18.566;2024-03-08T02:01:21;58.25;;;27.75;;
42364;SDS011;28498;54.400;18.566;2024-03-08T02:03:49;59.42;;;27.55;;
42364;SDS011;28498;54.400;18.566;2024-03-08T02:06:16;60.75;;;26.67;;
42364;SDS011;28498;54.400;18.566;2024-03-08T02:08:44;58.90;;;26.50;;
42364;SDS011;28498;54.400;18.566;2024-03-08T02:11:12;57.30;;;25.70;;
42364;SDS011;28498;54.400;18.566;2024-03-08T02:13:40;64.03;;;26.52;;
42364;SDS011;28498;54.400;18.566;2024-03-08T02:16:07;61.42;;;27.20;;
42364;SDS011;28498;54.400;18.566;2024-03-08T02:18:35;59.85;;;26.42;;
42364;SDS011;28498;54.400;18.566;2024-03-08T02:21:04;58.05;;;26.20;;
42364;SDS011;28498;54.400;18.566;2024-03-08T02:23:32;57.08;;;24.80;;
42364;SDS011;28498;54.400;18.566;2024-03-08T02:26:00;50.55;;;24.40;;
42364;SDS011;28498;54.400;18.566;2024-03-08T02:28:27;60.70;;;26.52;;
42364;SDS011;28498;54.400;18.566;2024-03-08T02:30:55;58.78;;;26.52;;
42364;SDS011;28498;54.400;18.566;2024-03-08T02:33:24;56.22;;;25.25;;
42364;SDS011;28498;54.400;18.566;2024-03-08T02:35:53;53.15;;;24.30;;
42364;SDS011;28498;54.400;18.566;2024-03-08T02:38:21;58.13;;;24.30;;
42364;SDS011;28498;54.400;18.566;2024-03-08T02:40:52;47.88;;;24.45;;
42364;SDS011;28498;54.400;18.566;2024-03-08T02:43:21;57.78;;;26.83;;
42364;SDS011;28498;54.400;18.566;2024-03-08T02:45:49;49.08;;;24.83;;
42364;SDS011;28498;54.400;18.566;2024-03-08T02:48:16;60.35;;;26.80;;
42364;SDS011;28498;54.400;18.566;2024-03-08T02:50:43;47.10;;;23.65;;
42364;SDS011;28498;54.400;18.566;2024-03-08T02:53:12;52.17;;;24.20;;
42364;SDS011;28498;54.400;18.566;2024-03-08T02:55:40;56.03;;;24.85;;
42364;SDS011;28498;54.400;18.566;2024-03-08T02:58:08;49.28;;;24.45;;
42364;SDS011;28498;54.400;18.566;2024-03-08T03:00:40;46.17;;;23.30;;
42364;SDS011;28498;54.400;18.566;2024-03-08T03:03:07;53.47;;;25.40;;
42364;SDS011;28498;54.400;18.566;2024-03-08T03:05:35;50.90;;;23.80;;
42364;SDS011;28498;54.400;18.566;2024-03-08T03:08:02;48.45;;;22.00;;
42364;SDS011;28498;54.400;18.566;2024-03-08T03:10:36;52.20;;;24.27;;
42364;SDS011;28498;54.400;18.566;2024-03-08T03:13:04;54.63;;;25.40;;
42364;SDS011;28498;54.400;18.566;2024-03-08T03:15:31;51.95;;;23.27;;
42364;SDS011;28498;54.400;18.566;2024-03-08T03:18:00;63.30;;;25.77;;
42364;SDS011;28498;54.400;18.566;2024-03-08T03:20:28;55.60;;;26.35;;
42364;SDS011;28498;54.400;18.566;2024-03-08T03:23:07;54.95;;;23.70;;
42364;SDS011;28498;54.400;18.566;2024-03-08T03:25:35;59.22;;;26.83;;
42364;SDS011;28498;54.400;18.566;2024-03-08T03:28:03;53.65;;;24.02;;
42364;SDS011;28498;54.400;18.566;2024-03-08T03:30:31;50.45;;;23.33;;
42364;SDS011;28498;54.400;18.566;2024-03-08T03:33:01;56.35;;;23.77;;
42364;SDS011;28498;54.400;18.566;2024-03-08T03:35:34;55.67;;;23.70;;
42364;SDS011;28498;54.400;18.566;2024-03-08T03:38:03;53.25;;;24.25;;
42364;SDS011;28498;54.400;18.566;2024-03-08T03:40:36;58.63;;;26.30;;
42364;SDS011;28498;54.400;18.566;2024-03-08T03:43:05;53.08;;;25.58;;
42364;SDS011;28498;54.400;18.566;2024-03-08T03:45:32;53.15;;;23.25;;
42364;SDS011;28498;54.400;18.566;2024-03-08T03:48:04;52.42;;;24.50;;
42364;SDS011;28498;54.400;18.566;2024-03-08T03:50:37;59.50;;;26.80;;
42364;SDS011;28498;54.400;18.566;2024-03-08T03:53:05;59.75;;;25.70;;
42364;SDS011;28498;54.400;18.566;2024-03-08T03:55:36;57.42;;;26.88;;
42364;SDS011;28498;54.400;18.566;2024-03-08T03:58:07;58.92;;;26.77;;
42364;SDS011;28498;54.400;18.566;2024-03-08T04:00:37;60.22;;;28.00;;
42364;SDS011;28498;54.400;18.566;2024-03-08T04:03:04;66.50;;;28.92;;
42364;SDS011;28498;54.400;18.566;2024-03-08T04:05:32;59.50;;;26.85;;
42364;SDS011;28498;54.400;18.566;2024-03-08T04:07:59;65.82;;;26.52;;
42364;SDS011;28498;54.400;18.566;2024-03-08T04:10:26;58.08;;;26.02;;
42364;SDS011;28498;54.400;18.566;2024-03-08T04:12:53;61.45;;;28.85;;
42364;SDS011;28498;54.400;18.566;2024-03-08T04:15:20;66.28;;;29.17;;
42364;SDS011;28498;54.400;18.566;2024-03-08T04:17:47;67.75;;;29.83;;
42364;SDS011;28498;54.400;18.566;2024-03-08T04:20:15;72.55;;;35.72;;
42364;SDS011;28498;54.400;18.566;2024-03-08T04:22:44;75.93;;;34.60;;
42364;SDS011;28498;54.400;18.566;2024-03-08T04:25:16;69.40;;;31.25;;
42364;SDS011;28498;54.400;18.566;2024-03-08T04:27:43;64.00;;;31.73;;
42364;SDS011;28498;54.400;18.566;2024-03-08T04:30:11;71.15;;;33.08;;
42364;SDS011;28498;54.400;18.566;2024-03-08T04:32:39;67.07;;;31.95;;
42364;SDS011;28498;54.400;18.566;2024-03-08T04:35:08;70.85;;;28.55;;
42364;SDS011;28498;54.400;18.566;2024-03-08T04:37:35;62.80;;;27.38;;
42364;SDS011;28498;54.400;18.566;2024-03-08T04:40:02;69.72;;;30.55;;
42364;SDS011;28498;54.400;18.566;2024-03-08T04:42:30;62.53;;;29.85;;
42364;SDS011;28498;54.400;18.566;2024-03-08T04:44:59;67.03;;;30.38;;
42364;SDS011;28498;54.400;18.566;2024-03-08T04:47:26;52.70;;;25.98;;
42364;SDS011;28498;54.400;18.566;2024-03-08T04:49:53;52.47;;;24.58;;
42364;SDS011;28498;54.400;18.566;2024-03-08T04:52:21;54.00;;;25.75;;
42364;SDS011;28498;54.400;18.566;2024-03-08T04:54:48;59.60;;;26.55;;
42364;SDS011;28498;54.400;18.566;2024-03-08T04:57:15;49.10;;;24.38;;
42364;SDS011;28498;54.400;18.566;2024-03-08T04:59:45;54.05;;;27.25;;
42364;SDS011;28498;54.400;18.566;2024-03-08T05:02:12;60.65;;;27.67;;
42364;SDS011;28498;54.400;18.566;2024-03-08T05:04:39;58.85;;;25.60;;
42364;SDS011;28498;54.400;18.566;2024-03-08T05:07:06;59.58;;;25.95;;
42364;SDS011;28498;54.400;18.566;2024-03-08T05:09:34;58.72;;;27.15;;
42364;SDS011;28498;54.400;18.566;2024-03-08T05:12:02;53.08;;;27.38;;
42364;SDS011;28498;54.400;18.566;2024-03-08T05:14:30;58.45;;;25.75;;
42364;SDS011;28498;54.400;18.566;2024-03-08T05:16:57;53.80;;;24.88;;
42364;SDS011;28498;54.400;18.566;2024-03-08T05:19:24;56.70;;;26.30;;
42364;SDS011;28498;54.400;18.566;2024-03-08T05:21:51;53.10;;;25.35;;
42364;SDS011;28498;54.400;18.566;2024-03-08T05:24:19;51.00;;;24.73;;
42364;SDS011;28498;54.400;18.566;2024-03-08T05:26:46;52.42;;;24.27;;
42364;SDS011;28498;54.400;18.566;2024-03-08T05:29:14;59.78;;;26.92;;
42364;SDS011;28498;54.400;18.566;2024-03-08T05:31:46;60.25;;;27.48;;
42364;SDS011;28498;54.400;18.566;2024-03-08T05:34:16;59.40;;;27.23;;
42364;SDS011;28498;54.400;18.566;2024-03-08T05:36:45;53.20;;;25.20;;
42364;SDS011;28498;54.400;18.566;2024-03-08T05:39:13;55.03;;;24.30;;
42364;SDS011;28498;54.400;18.566;2024-03-08T05:41:40;47.72;;;22.50;;
42364;SDS011;28498;54.400;18.566;2024-03-08T05:44:08;46.70;;;22.02;;
42364;SDS011;28498;54.400;18.566;2024-03-08T05:46:36;53.15;;;22.25;;
42364;SDS011;28498;54.400;18.566;2024-03-08T05:49:04;45.30;;;21.15;;
42364;SDS011;28498;54.400;18.566;2024-03-08T05:51:32;43.00;;;22.10;;
42364;SDS011;28498;54.400;18.566;2024-03-08T05:54:03;50.15;;;22.67;;
42364;SDS011;28498;54.400;18.566;2024-03-08T05:56:37;48.13;;;22.63;;
42364;SDS011;28498;54.400;18.566;2024-03-08T05:59:05;48.33;;;21.58;;
42364;SDS011;28498;54.400;18.566;2024-03-08T06:01:32;46.53;;;20.83;;
42364;SDS011;28498;54.400;18.566;2024-03-08T06:04:03;51.03;;;23.40;;
42364;SDS011;28498;54.400;18.566;2024-03-08T06:06:30;48.75;;;22.38;;
42364;SDS011;28498;54.400;18.566;2024-03-08T06:08:57;54.50;;;23.15;;
42364;SDS011;28498;54.400;18.566;2024-03-08T06:11:25;45.00;;;22.48;;
42364;SDS011;28498;54.400;18.566;2024-03-08T06:13:57;48.15;;;21.25;;
42364;SDS011;28498;54.400;18.566;2024-03-08T06:16:26;48.75;;;22.10;;
42364;SDS011;28498;54.400;18.566;2024-03-08T06:18:56;40.60;;;19.88;;
42364;SDS011;28498;54.400;18.566;2024-03-08T06:21:24;47.83;;;22.77;;
42364;SDS011;28498;54.400;18.566;2024-03-08T06:23:54;49.15;;;21.95;;
42364;SDS011;28498;54.400;18.566;2024-03-08T06:26:21;46.90;;;22.50;;
42364;SDS011;28498;54.400;18.566;2024-03-08T06:28:48;45.13;;;20.05;;
42364;SDS011;28498;54.400;18.566;2024-03-08T06:31:17;44.75;;;19.02;;
42364;SDS011;28498;54.400;18.566;2024-03-08T06:33:44;40.45;;;18.52;;
42364;SDS011;28498;54.400;18.566;2024-03-08T06:36:11;40.85;;;19.15;;
42364;SDS011;28498;54.400;18.566;2024-03-08T06:38:38;40.17;;;17.85;;
42364;SDS011;28498;54.400;18.566;2024-03-08T06:41:09;40.08;;;18.02;;
42364;SDS011;28498;54.400;18.566;2024-03-08T06:43:42;39.10;;;17.33;;
42364;SDS011;28498;54.400;18.566;2024-03-08T06:46:14;38.88;;;17.73;;
42364;SDS011;28498;54.400;18.566;2024-03-08T06:48:41;33.08;;;16.50;;
42364;SDS011;28498;54.400;18.566;2024-03-08T06:51:09;31.08;;;14.25;;
42364;SDS011;28498;54.400;18.566;2024-03-08T06:53:38;22.85;;;10.68;;
42364;SDS011;28498;54.400;18.566;2024-03-08T06:56:05;21.38;;;9.13;;
42364;SDS011;28498;54.400;18.566;2024-03-08T06:58:34;18.38;;;8.52;;
42364;SDS011;28498;54.400;18.566;2024-03-08T07:01:02;18.05;;;9.15;;
42364;SDS011;28498;54.400;18.566;2024-03-08T07:03:31;22.35;;;11.05;;
42364;SDS011;28498;54.400;18.566;2024-03-08T07:05:59;15.98;;;8.48;;
42364;SDS011;28498;54.400;18.566;2024-03-08T07:08:30;20.17;;;8.68;;
42364;SDS011;28498;54.400;18.566;2024-03-08T07:10:57;19.00;;;8.90;;
42364;SDS011;28498;54.400;18.566;2024-03-08T07:13:25;14.73;;;6.95;;
42364;SDS011;28498;54.400;18.566;2024-03-08T07:15:55;13.60;;;6.63;;
42364;SDS011;28498;54.400;18.566;2024-03-08T07:18:22;17.15;;;6.78;;
42364;SDS011;28498;54.400;18.566;2024-03-08T07:20:49;12.35;;;6.10;;
42364;SDS011;28498;54.400;18.566;2024-03-08T07:23:17;13.02;;;7.18;;
42364;SDS011;28498;54.400;18.566;2024-03-08T07:26:03;12.70;;;6.63;;
42364;SDS011;28498;54.400;18.566;2024-03-08T07:28:30;10.50;;;6.00;;
42364;SDS011;28498;54.400;18.566;2024-03-08T07:31:00;13.23;;;6.55;;
42364;SDS011;28498;54.400;18.566;2024-03-08T07:33:50;13.05;;;6.28;;
42364;SDS011;28498;54.400;18.566;2024-03-08T07:36:17;13.68;;;6.78;;
42364;SDS011;28498;54.400;18.566;2024-03-08T07:38:44;14.25;;;7.18;;
42364;SDS011;28498;54.400;18.566;2024-03-08T07:41:15;13.63;;;7.60;;
42364;SDS011;28498;54.400;18.566;2024-03-08T07:43:42;15.30;;;6.88;;
42364;SDS011;28498;54.400;18.566;2024-03-08T07:46:10;14.50;;;6.80;;
42364;SDS011;28498;54.400;18.566;2024-03-08T07:48:37;14.30;;;6.60;;
42364;SDS011;28498;54.400;18.566;2024-03-08T07:51:04;12.07;;;6.63;;
42364;SDS011;28498;54.400;18.566;2024-03-08T07:53:31;13.68;;;6.50;;
42364;SDS011;28498;54.400;18.566;2024-03-08T07:55:59;13.70;;;7.20;;
42364;SDS011;28498;54.400;18.566;2024-03-08T08:04:40;13.57;;;6.03;;
42364;SDS011;28498;54.400;18.566;2024-03-08T08:07:08;11.88;;;5.95;;
42364;SDS011;28498;54.400;18.566;2024-03-08T08:09:34;13.50;;;6.80;;
42364;SDS011;28498;54.400;18.566;2024-03-08T08:12:01;14.52;;;7.38;;
42364;SDS011;28498;54.400;18.566;2024-03-08T08:14:30;17.23;;;6.75;;
42364;SDS011;28498;54.400;18.566;2024-03-08T08:16:57;16.80;;;6.75;;
42364;SDS011;28498;54.400;18.566;2024-03-08T08:19:27;12.40;;;6.53;;
42364;SDS011;28498;54.400;18.566;2024-03-08T08:21:54;14.27;;;7.03;;
42364;SDS011;28498;54.400;18.566;2024-03-08T08:24:22;13.70;;;7.20;;
42364;SDS011;28498;54.400;18.566;2024-03-08T08:30:30;16.23;;;7.75;;
42364;SDS011;28498;54.400;18.566;2024-03-08T08:32:59;12.88;;;6.68;;
42364;SDS011;28498;54.400;18.566;2024-03-08T08:35:27;12.95;;;6.32;;
42364;SDS011;28498;54.400;18.566;2024-03-08T08:41:36;11.90;;;5.90;;
42364;SDS011;28498;54.400;18.566;2024-03-08T08:44:03;15.23;;;6.15;;
42364;SDS011;28498;54.400;18.566;2024-03-08T08:46:33;11.73;;;6.00;;
42364;SDS011;28498;54.400;18.566;2024-03-08T08:49:06;9.13;;;5.43;;
42364;SDS011;28498;54.400;18.566;2024-03-08T08:51:37;11.23;;;5.78;;
42364;SDS011;28498;54.400;18.566;2024-03-08T08:54:05;12.13;;;5.07;;
42364;SDS011;28498;54.400;18.566;2024-03-08T08:56:38;12.35;;;6.15;;
42364;SDS011;28498;54.400;18.566;2024-03-08T08:59:05;16.85;;;6.65;;
42364;SDS011;28498;54.400;18.566;2024-03-08T09:01:34;13.00;;;6.05;;
42364;SDS011;28498;54.400;18.566;2024-03-08T09:04:01;10.82;;;5.90;;
42364;SDS011;28498;54.400;18.566;2024-03-08T09:06:28;16.80;;;8.00;;
42364;SDS011;28498;54.400;18.566;2024-03-08T09:08:56;17.42;;;8.32;;
42364;SDS011;28498;54.400;18.566;2024-03-08T09:11:24;17.17;;;8.30;;
42364;SDS011;28498;54.400;18.566;2024-03-08T09:13:53;14.98;;;7.90;;
42364;SDS011;28498;54.400;18.566;2024-03-08T09:16:21;19.77;;;8.50;;
42364;SDS011;28498;54.400;18.566;2024-03-08T09:18:48;14.85;;;8.57;;
42364;SDS011;28498;54.400;18.566;2024-03-08T09:21:15;18.20;;;9.52;;
42364;SDS011;28498;54.400;18.566;2024-03-08T09:23:43;16.13;;;7.85;;
42364;SDS011;28498;54.400;18.566;2024-03-08T09:26:11;13.80;;;8.20;;
42364;SDS011;28498;54.400;18.566;2024-03-08T09:28:50;19.00;;;9.10;;
42364;SDS011;28498;54.400;18.566;2024-03-08T09:31:17;15.85;;;8.75;;
42364;SDS011;28498;54.400;18.566;2024-03-08T09:33:44;18.38;;;9.43;;
42364;SDS011;28498;54.400;18.566;2024-03-08T09:36:12;14.35;;;8.25;;
42364;SDS011;28498;54.400;18.566;2024-03-08T09:38:40;18.35;;;8.43;;
42364;SDS011;28498;54.400;18.566;2024-03-08T09:41:09;18.52;;;8.75;;
42364;SDS011;28498;54.400;18.566;2024-03-08T09:43:36;18.52;;;8.43;;
42364;SDS011;28498;54.400;18.566;2024-03-08T09:46:04;18.88;;;8.25;;
42364;SDS011;28498;54.400;18.566;2024-03-08T09:48:33;18.42;;;8.18;;
42364;SDS011;28498;54.400;18.566;2024-03-08T09:51:01;17.33;;;8.90;;
42364;SDS011;28498;54.400;18.566;2024-03-08T09:53:30;20.75;;;8.57;;
42364;SDS011;28498;54.400;18.566;2024-03-08T09:55:57;14.55;;;6.63;;
42364;SDS011;28498;54.400;18.566;2024-03-08T09:58:25;14.20;;;6.43;;
42364;SDS011;28498;54.400;18.566;2024-03-08T10:01:12;11.68;;;6.03;;
42364;SDS011;28498;54.400;18.566;2024-03-08T10:03:40;15.63;;;6.60;;
42364;SDS011;28498;54.400;18.566;2024-03-08T10:06:07;9.20;;;5.35;;
42364;SDS011;28498;54.400;18.566;2024-03-08T10:08:36;12.10;;;6.47;;
42364;SDS011;28498;54.400;18.566;2024-03-08T10:11:03;12.70;;;5.53;;
42364;SDS011;28498;54.400;18.566;2024-03-08T10:13:30;9.43;;;5.75;;
42364;SDS011;28498;54.400;18.566;2024-03-08T10:15:59;13.15;;;6.47;;
42364;SDS011;28498;54.400;18.566;2024-03-08T10:18:27;11.05;;;6.22;;
42364;SDS011;28498;54.400;18.566;2024-03-08T10:21:04;12.80;;;7.55;;
42364;SDS011;28498;54.400;18.566;2024-03-08T10:23:34;10.48;;;5.90;;
42364;SDS011;28498;54.400;18.566;2024-03-08T10:26:10;12.57;;;6.32;;
42364;SDS011;28498;54.400;18.566;2024-03-08T10:28:42;12.10;;;6.35;;
42364;SDS011;28498;54.400;18.566;2024-03-08T10:31:11;14.98;;;6.32;;
42364;SDS011;28498;54.400;18.566;2024-03-08T10:33:41;11.75;;;7.15;;
42364;SDS011;28498;54.400;18.566;2024-03-08T10:36:08;17.58;;;7.00;;
42364;SDS011;28498;54.400;18.566;2024-03-08T10:38:36;14.98;;;7.03;;
42364;SDS011;28498;54.400;18.566;2024-03-08T10:41:08;12.88;;;6.22;;
42364;SDS011;28498;54.400;18.566;2024-03-08T10:43:40;12.18;;;6.63;;
42364;SDS011;28498;54.400;18.566;2024-03-08T10:49:08;17.52;;;9.27;;
42364;SDS011;28498;54.400;18.566;2024-03-08T10:51:44;17.17;;;7.78;;
42364;SDS011;28498;54.400;18.566;2024-03-08T10:54:13;11.68;;;6.55;;
42364;SDS011;28498;54.400;18.566;2024-03-08T10:56:42;13.57;;;6.93;;
42364;SDS011;28498;54.400;18.566;2024-03-08T10:59:09;12.07;;;6.03;;
42364;SDS011;28498;54.400;18.566;2024-03-08T11:01:37;10.27;;;6.20;;
42364;SDS011;28498;54.400;18.566;2024-03-08T11:04:07;14.82;;;7.65;;
42364;SDS011;28498;54.400;18.566;2024-03-08T11:09:37;11.15;;;6.35;;
42364;SDS011;28498;54.400;18.566;2024-03-08T11:12:21;10.57;;;6.05;;
42364;SDS011;28498;54.400;18.566;2024-03-08T11:15:01;18.30;;;6.90;;
42364;SDS011;28498;54.400;18.566;2024-03-08T11:20:10;12.93;;;5.70;;
42364;SDS011;28498;54.400;18.566;2024-03-08T11:22:47;10.88;;;6.05;;
42364;SDS011;28498;54.400;18.566;2024-03-08T11:28:17;9.40;;;5.43;;
42364;SDS011;28498;54.400;18.566;2024-03-08T11:33:29;14.73;;;6.93;;
42364;SDS011;28498;54.400;18.566;2024-03-08T11:38:48;14.23;;;5.72;;
42364;SDS011;28498;54.400;18.566;2024-03-08T11:41:18;11.45;;;5.93;;
42364;SDS011;28498;54.400;18.566;2024-03-08T11:43:47;12.02;;;5.75;;
42364;SDS011;28498;54.400;18.566;2024-03-08T11:46:16;12.02;;;5.63;;
42364;SDS011;28498;54.400;18.566;2024-03-08T11:48:46;11.45;;;5.70;;
42364;SDS011;28498;54.400;18.566;2024-03-08T11:51:14;14.80;;;7.00;;
42364;SDS011;28498;54.400;18.566;2024-03-08T11:53:45;11.55;;;6.07;;
42364;SDS011;28498;54.400;18.566;2024-03-08T11:56:13;14.98;;;7.07;;
42364;SDS011;28498;54.400;18.566;2024-03-08T11:58:51;13.32;;;6.80;;
42364;SDS011;28498;54.400;18.566;2024-03-08T12:01:20;13.23;;;7.68;;
42364;SDS011;28498;54.400;18.566;2024-03-08T12:03:52;14.15;;;7.03;;
42364;SDS011;28498;54.400;18.566;2024-03-08T12:06:25;12.93;;;6.45;;
42364;SDS011;28498;54.400;18.566;2024-03-08T12:08:53;15.60;;;6.80;;
42364;SDS011;28498;54.400;18.566;2024-03-08T12:11:20;15.18;;;6.75;;
42364;SDS011;28498;54.400;18.566;2024-03-08T12:13:51;10.52;;;6.25;;
42364;SDS011;28498;54.400;18.566;2024-03-08T12:16:18;16.73;;;8.32;;
42364;SDS011;28498;54.400;18.566;2024-03-08T12:18:47;13.57;;;8.00;;
42364;SDS011;28498;54.400;18.566;2024-03-08T12:21:15;12.35;;;6.75;;
42364;SDS011;28498;54.400;18.566;2024-03-08T12:23:46;11.68;;;7.47;;
42364;SDS011;28498;54.400;18.566;2024-03-08T12:26:24;12.95;;;7.38;;
42364;SDS011;28498;54.400;18.566;2024-03-08T12:28:52;12.00;;;6.53;;
42364;SDS011;28498;54.400;18.566;2024-03-08T12:31:20;13.68;;;7.72;;
42364;SDS011;28498;54.400;18.566;2024-03-08T12:33:48;11.38;;;6.70;;
42364;SDS011;28498;54.400;18.566;2024-03-08T12:36:23;15.43;;;7.32;;
42364;SDS011;28498;54.400;18.566;2024-03-08T12:38:50;9.90;;;6.13;;
42364;SDS011;28498;54.400;18.566;2024-03-08T12:41:18;10.35;;;6.43;;
42364;SDS011;28498;54.400;18.566;2024-03-08T12:43:46;12.95;;;7.78;;
42364;SDS011;28498;54.400;18.566;2024-03-08T12:46:17;11.70;;;6.53;;
42364;SDS011;28498;54.400;18.566;2024-03-08T12:49:03;9.18;;;5.55;;
42364;SDS011;28498;54.400;18.566;2024-03-08T12:51:31;11.52;;;5.97;;
42364;SDS011;28498;54.400;18.566;2024-03-08T12:53:59;12.88;;;7.47;;
42364;SDS011;28498;54.400;18.566;2024-03-08T12:56:31;11.75;;;5.95;;
42364;SDS011;28498;54.400;18.566;2024-03-08T12:59:00;10.77;;;5.78;;
42364;SDS011;28498;54.400;18.566;2024-03-08T13:01:28;13.40;;;6.82;;
42364;SDS011;28498;54.400;18.566;2024-03-08T13:03:55;11.70;;;5.90;;
42364;SDS011;28498;54.400;18.566;2024-03-08T13:06:22;8.68;;;5.45;;
42364;SDS011;28498;54.400;18.566;2024-03-08T13:08:51;11.55;;;5.07;;
42364;SDS011;28498;54.400;18.566;2024-03-08T13:11:22;14.13;;;6.15;;
42364;SDS011;28498;54.400;18.566;2024-03-08T13:13:52;10.90;;;5.00;;
42364;SDS011;28498;54.400;18.566;2024-03-08T13:16:20;14.35;;;5.57;;
42364;SDS011;28498;54.400;18.566;2024-03-08T13:18:47;15.00;;;5.43;;
42364;SDS011;28498;54.400;18.566;2024-03-08T13:21:20;11.35;;;5.60;;
42364;SDS011;28498;54.400;18.566;2024-03-08T13:23:50;9.88;;;5.97;;
42364;SDS011;28498;54.400;18.566;2024-03-08T13:26:19;7.90;;;5.05;;
42364;SDS011;28498;54.400;18.566;2024-03-08T13:28:47;8.40;;;4.53;;
42364;SDS011;28498;54.400;18.566;2024-03-08T13:31:15;9.40;;;5.50;;
42364;SDS011;28498;54.400;18.566;2024-03-08T13:33:42;9.60;;;4.97;;
42364;SDS011;28498;54.400;18.566;2024-03-08T13:36:13;12.05;;;4.85;;
42364;SDS011;28498;54.400;18.566;2024-03-08T13:41:13;9.35;;;5.35;;
42364;SDS011;28498;54.400;18.566;2024-03-08T13:43:41;10.25;;;4.75;;
42364;SDS011;28498;54.400;18.566;2024-03-08T13:46:08;15.13;;;5.70;;
42364;SDS011;28498;54.400;18.566;2024-03-08T13:48:38;8.98;;;5.07;;
42364;SDS011;28498;54.400;18.566;2024-03-08T13:51:05;7.93;;;4.00;;
42364;SDS011;28498;54.400;18.566;2024-03-08T13:53:33;6.03;;;3.83;;
42364;SDS011;28498;54.400;18.566;2024-03-08T13:56:03;7.43;;;4.03;;
42364;SDS011;28498;54.400;18.566;2024-03-08T13:58:32;5.38;;;3.28;;
42364;SDS011;28498;54.400;18.566;2024-03-08T14:00:59;4.75;;;2.60;;
42364;SDS011;28498;54.400;18.566;2024-03-08T14:03:27;5.72;;;2.75;;
42364;SDS011;28498;54.400;18.566;2024-03-08T14:05:54;8.35;;;3.50;;
42364;SDS011;28498;54.400;18.566;2024-03-08T14:08:22;7.50;;;2.53;;
42364;SDS011;28498;54.400;18.566;2024-03-08T14:10:50;5.00;;;2.78;;
42364;SDS011;28498;54.400;18.566;2024-03-08T14:13:20;5.13;;;2.97;;
42364;SDS011;28498;54.400;18.566;2024-03-08T14:15:47;5.70;;;2.28;;
42364;SDS011;28498;54.400;18.566;2024-03-08T14:18:14;4.75;;;2.80;;
42364;SDS011;28498;54.400;18.566;2024-03-08T14:20:42;4.88;;;2.70;;
42364;SDS011;28498;54.400;18.566;2024-03-08T14:23:09;8.13;;;2.88;;
42364;SDS011;28498;54.400;18.566;2024-03-08T14:25:36;5.50;;;2.88;;
42364;SDS011;28498;54.400;18.566;2024-03-08T14:28:04;4.35;;;2.70;;
42364;SDS011;28498;54.400;18.566;2024-03-08T14:30:34;4.68;;;2.28;;
42364;SDS011;28498;54.400;18.566;2024-03-08T14:33:02;7.03;;;3.20;;
42364;SDS011;28498;54.400;18.566;2024-03-08T14:35:29;6.35;;;3.08;;
42364;SDS011;28498;54.400;18.566;2024-03-08T14:37:56;6.05;;;2.60;;
42364;SDS011;28498;54.400;18.566;2024-03-08T14:40:24;5.53;;;2.55;;
42364;SDS011;28498;54.400;18.566;2024-03-08T14:42:52;4.60;;;2.22;;
42364;SDS011;28498;54.400;18.566;2024-03-08T14:45:19;4.05;;;2.00;;
42364;SDS011;28498;54.400;18.566;2024-03-08T14:47:47;4.07;;;1.80;;
42364;SDS011;28498;54.400;18.566;2024-03-08T14:50:24;3.30;;;1.70;;
42364;SDS011;28498;54.400;18.566;2024-03-08T14:52:52;7.35;;;2.22;;
42364;SDS011;28498;54.400;18.566;2024-03-08T14:55:20;3.30;;;1.92;;
42364;SDS011;28498;54.400;18.566;2024-03-08T14:57:52;4.32;;;1.83;;